Time;durP1;ratioP1;P1;durP2;ratioP2;P2;SDS_P1;SDS_P2;PMS_P1;PMS_P2;Temp;Humidity;BMP_temperature;BMP_pressure;BME280_temperature;BME280_humidity;BME280_pressure;Samples;Min_cycle;Max_cycle;Signal;HPM_P1;HPM_P2
2023/11/04 00:00:41;;;;;;;1.20;1.10;;;4.90;99.90;;;;;;5086651;28;20587;-72
2023/11/04 00:03:08;;;;;;;1.33;1.23;;;4.90;99.90;;;;;;5092902;28;20199;-72
2023/11/04 00:05:36;;;;;;;1.58;1.48;;;4.90;99.90;;;;;;5092829;28;20199;-72
2023/11/04 00:08:04;;;;;;;2.38;1.50;;;4.90;99.90;;;;;;5086782;28;20203;-72
2023/11/04 00:10:31;;;;;;;1.40;1.30;;;4.70;99.90;;;;;;5097093;28;20187;-72
2023/11/04 00:12:58;;;;;;;1.35;1.25;;;4.80;99.90;;;;;;5095303;28;20206;-72
2023/11/04 00:15:25;;;;;;;1.10;1.00;;;4.80;99.90;;;;;;5095572;28;20205;-72
2023/11/04 00:17:54;;;;;;;1.10;0.90;;;4.80;99.90;;;;;;5096872;28;20202;-72
2023/11/04 00:20:21;;;;;;;3.40;2.60;;;4.70;99.90;;;;;;5096878;28;20213;-72
2023/11/04 00:22:47;;;;;;;1.13;1.02;;;4.70;99.90;;;;;;5089054;28;20564;-72
2023/11/04 00:25:14;;;;;;;0.90;0.90;;;4.80;99.90;;;;;;5094781;28;20203;-72
2023/11/04 00:27:41;;;;;;;3.03;1.85;;;4.90;99.90;;;;;;5098356;28;20201;-71
2023/11/04 00:30:09;;;;;;;1.33;1.23;;;4.90;99.90;;;;;;5102742;28;20201;-71
2023/11/04 00:32:36;;;;;;;0.90;0.90;;;5.00;99.90;;;;;;5087838;28;20195;-72
2023/11/04 00:35:05;;;;;;;1.60;1.50;;;5.00;99.90;;;;;;5097438;28;20203;-72
2023/11/04 00:37:32;;;;;;;2.33;1.40;;;5.00;99.90;;;;;;5087288;28;20230;-72
2023/11/04 00:40:00;;;;;;;3.05;1.67;;;4.90;99.90;;;;;;5088697;28;20199;-72
2023/11/04 00:42:27;;;;;;;1.40;1.23;;;4.90;99.90;;;;;;5089330;28;20720;-72
2023/11/04 00:44:55;;;;;;;1.02;1.02;;;4.90;99.90;;;;;;5091817;28;20191;-72
2023/11/04 00:47:22;;;;;;;2.40;2.20;;;5.00;99.90;;;;;;5096684;28;20540;-72
2023/11/04 00:49:48;;;;;;;1.13;1.02;;;4.90;99.90;;;;;;5090210;28;20573;-72
2023/11/04 00:52:17;;;;;;;1.15;1.05;;;4.90;99.90;;;;;;5095489;28;20587;-72
2023/11/04 00:54:43;;;;;;;2.47;1.48;;;5.00;99.90;;;;;;5090384;28;20207;-72
2023/11/04 00:57:11;;;;;;;1.17;1.10;;;5.00;99.90;;;;;;5095576;28;20226;-73
2023/11/04 00:59:37;;;;;;;1.20;1.10;;;4.90;99.90;;;;;;5092795;28;20196;-72
2023/11/04 01:02:04;;;;;;;1.98;1.85;;;4.90;99.90;;;;;;5092446;28;20207;-72
2023/11/04 01:04:32;;;;;;;1.55;1.40;;;4.80;99.90;;;;;;5098441;28;20252;-72
2023/11/04 01:07:00;;;;;;;1.88;1.45;;;4.80;99.90;;;;;;5094376;28;20206;-73
2023/11/04 01:09:30;;;;;;;1.65;1.55;;;4.70;99.90;;;;;;5082137;28;20203;-72
2023/11/04 01:11:57;;;;;;;1.60;1.50;;;4.80;99.90;;;;;;5088705;28;20679;-72
2023/11/04 01:14:25;;;;;;;1.83;1.73;;;4.70;99.90;;;;;;5097630;28;20747;-72
2023/11/04 01:16:51;;;;;;;1.38;1.27;;;4.70;99.90;;;;;;5086899;28;20751;-72
2023/11/04 01:19:18;;;;;;;1.33;1.23;;;4.70;99.90;;;;;;5092171;28;20200;-72
2023/11/04 01:21:45;;;;;;;4.07;1.40;;;4.70;99.90;;;;;;5098938;28;20210;-72
2023/11/04 01:24:12;;;;;;;1.25;1.15;;;4.60;99.90;;;;;;5099517;28;20576;-72
2023/11/04 01:26:40;;;;;;;1.38;1.15;;;4.60;99.90;;;;;;5089171;28;20195;-72
2023/11/04 01:29:10;;;;;;;1.30;1.05;;;4.50;99.90;;;;;;5085699;28;20250;-72
2023/11/04 01:31:37;;;;;;;1.55;1.45;;;4.60;99.90;;;;;;5094662;28;20207;-72
2023/11/04 01:34:04;;;;;;;3.40;1.70;;;4.60;99.90;;;;;;5106069;28;20251;-72
2023/11/04 01:36:30;;;;;;;3.53;1.70;;;4.60;99.90;;;;;;5089053;28;20222;-72
2023/11/04 01:38:57;;;;;;;2.25;1.45;;;4.70;99.90;;;;;;5091117;28;20199;-72
2023/11/04 01:41:24;;;;;;;3.95;1.40;;;4.70;99.90;;;;;;5088201;28;20728;-72
2023/11/04 01:43:52;;;;;;;1.60;1.50;;;4.60;99.90;;;;;;5088046;28;20222;-72
2023/11/04 01:46:22;;;;;;;1.73;1.20;;;4.50;99.90;;;;;;5089819;28;20215;-72
2023/11/04 01:48:49;;;;;;;1.48;1.38;;;4.60;99.90;;;;;;5087432;28;20551;-72
2023/11/04 01:51:17;;;;;;;2.25;2.05;;;4.60;99.90;;;;;;5088947;28;20244;-72
2023/11/04 01:53:47;;;;;;;2.28;1.90;;;4.50;99.90;;;;;;5090366;28;20206;-72
2023/11/04 01:56:17;;;;;;;2.55;1.50;;;4.40;99.90;;;;;;5088263;28;20230;-72
2023/11/04 01:58:46;;;;;;;1.60;1.50;;;4.50;99.90;;;;;;5087878;28;20204;-72
2023/11/04 02:01:15;;;;;;;1.48;1.10;;;4.40;99.90;;;;;;5087376;28;20217;-72
2023/11/04 02:03:42;;;;;;;1.30;1.20;;;4.40;99.90;;;;;;5085611;28;20198;-72
2023/11/04 02:06:09;;;;;;;1.35;1.27;;;4.40;99.90;;;;;;5092700;28;20736;-72
2023/11/04 02:08:36;;;;;;;1.45;1.35;;;4.40;99.90;;;;;;5084375;28;20670;-72
2023/11/04 02:11:04;;;;;;;1.90;1.80;;;4.30;99.90;;;;;;5088524;28;20199;-73
2023/11/04 02:13:32;;;;;;;1.27;1.27;;;4.40;99.90;;;;;;5081354;28;20207;-73
2023/11/04 02:16:00;;;;;;;1.95;1.40;;;4.30;99.90;;;;;;5091121;28;20225;-73
2023/11/04 02:18:30;;;;;;;1.73;1.27;;;4.50;99.90;;;;;;5094272;28;20203;-73
2023/11/04 02:20:59;;;;;;;0.90;0.90;;;4.50;99.90;;;;;;5095801;28;20202;-73
2023/11/04 02:23:27;;;;;;;2.05;1.95;;;4.40;99.90;;;;;;5101683;28;20262;-73
2023/11/04 02:25:56;;;;;;;1.23;1.10;;;4.30;99.90;;;;;;5095087;28;20575;-73
2023/11/04 02:28:24;;;;;;;1.63;1.52;;;4.20;99.90;;;;;;5085337;28;20614;-73
2023/11/04 02:30:51;;;;;;;1.00;1.00;;;4.30;99.90;;;;;;5101219;28;20199;-73
2023/11/04 02:33:20;;;;;;;1.40;1.10;;;4.30;99.90;;;;;;5087613;28;20206;-73
2023/11/04 02:35:49;;;;;;;1.60;1.30;;;4.30;99.90;;;;;;5087438;28;20688;-72
2023/11/04 02:38:19;;;;;;;1.10;0.98;;;4.30;99.90;;;;;;5088828;28;20234;-73
2023/11/04 02:40:46;;;;;;;1.60;1.50;;;4.20;99.90;;;;;;5088295;28;20214;-72
2023/11/04 02:43:15;;;;;;;1.80;1.15;;;4.20;99.90;;;;;;5087587;28;20214;-72
2023/11/04 02:45:43;;;;;;;1.45;1.20;;;4.20;99.90;;;;;;5095270;28;20202;-73
2023/11/04 02:48:11;;;;;;;4.78;1.58;;;4.20;99.90;;;;;;5086647;28;20203;-73
2023/11/04 02:50:39;;;;;;;0.93;0.93;;;4.30;99.90;;;;;;5088743;28;20566;-73
2023/11/04 02:53:06;;;;;;;3.15;1.50;;;4.20;99.90;;;;;;5089402;28;20273;-73
2023/11/04 02:55:34;;;;;;;1.30;1.20;;;4.20;99.90;;;;;;5085986;28;20203;-73
2023/11/04 02:58:01;;;;;;;1.45;1.35;;;4.20;99.90;;;;;;5089154;28;20674;-73
2023/11/04 03:00:28;;;;;;;1.30;1.00;;;4.10;99.90;;;;;;5090405;28;20199;-72
2023/11/04 03:02:55;;;;;;;3.83;1.40;;;4.30;99.90;;;;;;5089876;28;20203;-73
2023/11/04 03:05:21;;;;;;;1.10;1.00;;;4.30;99.90;;;;;;5085981;28;20213;-73
2023/11/04 03:07:48;;;;;;;1.35;0.90;;;4.40;99.90;;;;;;5091133;28;20276;-73
2023/11/04 03:10:15;;;;;;;1.70;1.60;;;4.40;99.90;;;;;;5091594;28;20655;-72
2023/11/04 03:12:44;;;;;;;0.95;0.90;;;4.40;99.90;;;;;;5099036;28;20185;-73
2023/11/04 03:15:12;;;;;;;1.13;0.82;;;4.50;99.90;;;;;;5092306;28;20268;-72
2023/11/04 03:17:39;;;;;;;0.57;0.57;;;4.30;99.90;;;;;;5098412;28;20223;-73
2023/11/04 03:20:08;;;;;;;4.90;1.25;;;4.30;99.90;;;;;;5099445;28;20653;-73
2023/11/04 03:22:36;;;;;;;1.50;1.23;;;4.30;99.90;;;;;;5105075;28;20212;-73
2023/11/04 03:25:05;;;;;;;0.85;0.80;;;4.40;99.90;;;;;;5096712;28;20222;-73
2023/11/04 03:27:32;;;;;;;1.02;0.90;;;4.30;99.90;;;;;;5087618;28;20205;-73
2023/11/04 03:30:02;;;;;;;1.08;1.08;;;4.20;99.90;;;;;;5098410;28;20207;-73
2023/11/04 03:32:30;;;;;;;1.05;0.95;;;4.30;99.90;;;;;;5087062;28;20207;-73
2023/11/04 03:34:58;;;;;;;1.23;1.13;;;4.40;99.90;;;;;;5089469;28;20199;-73
2023/11/04 03:37:26;;;;;;;1.10;0.93;;;4.40;99.90;;;;;;5105520;28;20222;-73
2023/11/04 03:39:54;;;;;;;1.27;1.17;;;4.30;99.90;;;;;;5109349;28;20205;-73
2023/11/04 03:42:21;;;;;;;0.95;0.88;;;4.40;99.90;;;;;;5099342;28;20205;-73
2023/11/04 03:44:48;;;;;;;0.60;0.60;;;4.40;99.90;;;;;;5090355;28;20559;-73
2023/11/04 03:47:19;;;;;;;1.13;1.02;;;4.50;99.90;;;;;;5091974;28;20202;-73
2023/11/04 03:49:47;;;;;;;1.42;1.02;;;4.50;99.90;;;;;;5090372;28;20278;-72
2023/11/04 03:52:15;;;;;;;4.63;1.63;;;4.60;99.90;;;;;;5093290;28;20575;-73
2023/11/04 03:54:43;;;;;;;0.80;0.80;;;4.70;99.90;;;;;;5093114;28;20203;-73
2023/11/04 03:57:10;;;;;;;0.57;0.57;;;4.60;99.90;;;;;;5089694;28;20219;-73
2023/11/04 03:59:37;;;;;;;1.33;1.02;;;4.60;99.90;;;;;;5090515;28;20209;-73
2023/11/04 04:02:03;;;;;;;1.02;0.90;;;4.70;99.90;;;;;;5089486;28;20202;-72
2023/11/04 04:04:31;;;;;;;0.80;0.80;;;4.70;99.90;;;;;;5088691;28;20212;-72
2023/11/04 04:06:58;;;;;;;0.93;0.82;;;4.60;99.90;;;;;;5086064;28;20205;-73
2023/11/04 04:09:24;;;;;;;0.55;0.55;;;4.70;99.90;;;;;;5089192;28;20199;-73
2023/11/04 04:11:51;;;;;;;1.90;1.00;;;4.60;99.90;;;;;;5089472;28;20207;-73
2023/11/04 04:14:18;;;;;;;0.70;0.70;;;4.60;99.90;;;;;;5090516;28;20302;-72
2023/11/04 04:16:46;;;;;;;1.13;0.90;;;4.60;99.90;;;;;;5095997;28;20192;-73
2023/11/04 04:19:20;;;;;;;1.20;0.90;;;4.50;99.90;;;;;;5088998;28;20302;-73
2023/11/04 04:21:49;;;;;;;1.05;1.00;;;4.50;99.90;;;;;;5092556;28;20280;-73
2023/11/04 04:24:16;;;;;;;1.17;1.08;;;4.50;99.90;;;;;;5089015;28;20196;-73
2023/11/04 04:26:43;;;;;;;0.90;0.90;;;4.70;99.90;;;;;;5095958;28;20207;-73
2023/11/04 04:29:10;;;;;;;1.05;0.85;;;4.60;99.90;;;;;;5089835;28;20203;-73
2023/11/04 04:31:36;;;;;;;1.35;1.25;;;4.60;99.90;;;;;;5095207;28;20679;-72
2023/11/04 04:34:03;;;;;;;7.03;1.42;;;4.60;99.90;;;;;;5085658;28;20203;-73
2023/11/04 04:36:30;;;;;;;1.13;1.02;;;4.50;99.90;;;;;;5088203;28;20221;-73
2023/11/04 04:38:58;;;;;;;0.55;0.55;;;4.40;99.90;;;;;;5093337;28;20222;-73
2023/11/04 04:41:26;;;;;;;1.15;0.85;;;4.40;99.90;;;;;;5099866;28;21875;-73
2023/11/04 04:43:53;;;;;;;1.63;1.38;;;4.40;99.90;;;;;;5096798;28;20715;-73
2023/11/04 04:46:20;;;;;;;0.82;0.80;;;4.40;99.90;;;;;;5102313;28;20195;-73
2023/11/04 04:48:46;;;;;;;1.65;1.55;;;4.40;99.90;;;;;;5089079;28;20202;-73
2023/11/04 04:51:16;;;;;;;1.20;1.10;;;4.50;99.90;;;;;;5103059;28;20714;-73
2023/11/04 04:53:43;;;;;;;0.82;0.82;;;4.60;99.90;;;;;;5106253;28;20239;-73
2023/11/04 04:56:11;;;;;;;1.65;1.55;;;4.50;99.90;;;;;;5090410;28;20210;-73
2023/11/04 04:58:38;;;;;;;0.80;0.80;;;4.40;99.90;;;;;;5101373;28;20221;-73
2023/11/04 05:01:05;;;;;;;0.75;0.75;;;4.50;99.90;;;;;;5099746;28;20202;-73
2023/11/04 05:03:32;;;;;;;1.25;1.25;;;4.50;99.90;;;;;;5083442;28;20597;-73
2023/11/04 05:05:59;;;;;;;0.90;0.90;;;4.50;99.90;;;;;;5090607;28;20762;-73
2023/11/04 05:08:26;;;;;;;1.88;1.77;;;4.50;99.90;;;;;;5084763;28;20214;-73
2023/11/04 05:10:52;;;;;;;0.93;0.90;;;4.50;99.90;;;;;;5091647;28;20205;-73
2023/11/04 05:13:20;;;;;;;1.20;1.10;;;4.50;99.90;;;;;;5091086;28;20302;-73
2023/11/04 05:15:47;;;;;;;1.00;0.88;;;4.50;99.90;;;;;;5083380;28;20195;-73
2023/11/04 05:18:14;;;;;;;1.50;1.40;;;4.50;99.90;;;;;;5088130;28;20314;-73
2023/11/04 05:20:41;;;;;;;1.30;1.20;;;4.50;99.90;;;;;;5088570;28;20312;-73
2023/11/04 05:23:08;;;;;;;1.30;1.02;;;4.60;99.90;;;;;;5090041;28;20226;-73
2023/11/04 05:25:35;;;;;;;0.95;0.90;;;4.60;99.90;;;;;;5087044;28;20679;-73
2023/11/04 05:28:02;;;;;;;0.95;0.95;;;4.70;99.90;;;;;;5090750;28;20256;-73
2023/11/04 05:30:30;;;;;;;0.98;0.98;;;4.70;99.90;;;;;;5094606;28;20611;-72
2023/11/04 05:32:58;;;;;;;1.33;1.25;;;4.70;99.90;;;;;;5096705;28;20285;-73
2023/11/04 05:35:25;;;;;;;1.10;0.88;;;4.80;99.90;;;;;;5095490;28;20294;-73
2023/11/04 05:37:52;;;;;;;1.25;1.15;;;4.80;99.90;;;;;;5086723;28;20633;-73
2023/11/04 05:40:18;;;;;;;0.90;0.90;;;4.70;99.90;;;;;;5089227;28;20554;-73
2023/11/04 05:42:45;;;;;;;1.27;1.17;;;4.70;99.90;;;;;;5095086;28;20671;-71
2023/11/04 05:45:14;;;;;;;0.88;0.88;;;4.70;99.90;;;;;;5100715;28;20230;-73
2023/11/04 05:47:45;;;;;;;1.05;1.00;;;4.70;99.90;;;;;;5092060;28;20270;-71
2023/11/04 05:50:12;;;;;;;0.50;0.50;;;4.70;99.90;;;;;;5093420;28;20202;-72
2023/11/04 05:52:41;;;;;;;1.30;1.20;;;4.70;99.90;;;;;;5098884;28;20837;-71
2023/11/04 05:55:08;;;;;;;0.73;0.73;;;4.60;99.90;;;;;;5104707;28;20655;-71
2023/11/04 05:57:35;;;;;;;2.10;1.00;;;4.60;99.90;;;;;;5100753;28;20222;-73
2023/11/04 06:00:07;;;;;;;1.30;1.17;;;4.50;99.90;;;;;;5107387;28;20195;-72
2023/11/04 06:02:34;;;;;;;0.80;0.80;;;4.50;99.90;;;;;;5080945;28;20199;-71
2023/11/04 06:05:02;;;;;;;1.45;1.35;;;4.50;99.90;;;;;;5091871;28;20210;-72
2023/11/04 06:07:29;;;;;;;1.15;1.05;;;4.50;99.90;;;;;;5086109;28;20558;-71
2023/11/04 06:09:56;;;;;;;1.10;1.00;;;4.40;99.90;;;;;;5090759;28;20205;-71
2023/11/04 06:12:23;;;;;;;1.80;0.98;;;4.40;99.90;;;;;;5091172;28;20297;-72
2023/11/04 06:14:50;;;;;;;2.50;1.02;;;4.40;99.90;;;;;;5086325;28;20652;-72
2023/11/04 06:17:17;;;;;;;0.65;0.65;;;4.40;99.90;;;;;;5090722;28;20198;-71
2023/11/04 06:19:43;;;;;;;0.77;0.70;;;4.40;99.90;;;;;;5087283;28;20199;-72
2023/11/04 06:22:12;;;;;;;1.70;1.00;;;4.30;99.90;;;;;;5093297;28;20198;-72
2023/11/04 06:24:39;;;;;;;1.20;0.90;;;4.30;99.90;;;;;;5094220;28;20205;-72
2023/11/04 06:27:06;;;;;;;0.85;0.63;;;4.40;99.90;;;;;;5086326;28;20691;-72
2023/11/04 06:29:33;;;;;;;1.25;0.95;;;4.50;99.90;;;;;;5081945;28;20213;-72
2023/11/04 06:31:59;;;;;;;0.82;0.65;;;4.50;99.90;;;;;;5087135;28;20203;-72
2023/11/04 06:34:26;;;;;;;1.20;0.95;;;4.50;99.90;;;;;;5086811;28;20199;-72
2023/11/04 06:36:53;;;;;;;0.70;0.70;;;4.50;99.90;;;;;;5086864;28;20202;-72
2023/11/04 06:39:21;;;;;;;1.63;1.40;;;4.50;99.90;;;;;;5096850;28;20731;-72
2023/11/04 06:41:48;;;;;;;0.85;0.85;;;4.50;99.90;;;;;;5095617;28;20198;-72
2023/11/04 06:44:16;;;;;;;1.38;1.27;;;4.70;99.90;;;;;;5088284;28;20199;-72
2023/11/04 06:46:48;;;;;;;0.70;0.70;;;4.70;99.90;;;;;;5096864;28;20224;-72
2023/11/04 06:49:15;;;;;;;0.63;0.63;;;4.70;99.90;;;;;;5085475;28;21411;-72
2023/11/04 06:51:41;;;;;;;0.55;0.52;;;4.70;99.90;;;;;;5096653;28;20209;-72
2023/11/04 06:54:08;;;;;;;0.98;0.98;;;4.80;99.90;;;;;;5086063;28;20623;-72
2023/11/04 06:56:36;;;;;;;0.57;0.40;;;4.80;99.90;;;;;;5095686;28;20723;-72
2023/11/04 06:59:04;;;;;;;1.45;0.98;;;4.80;99.90;;;;;;5094969;28;20739;-72
2023/11/04 07:01:31;;;;;;;0.73;0.63;;;4.70;99.90;;;;;;5094309;28;20198;-73
2023/11/04 07:03:58;;;;;;;0.95;0.73;;;4.90;99.90;;;;;;5089479;28;20198;-74
2023/11/04 07:06:25;;;;;;;0.80;0.80;;;4.90;99.90;;;;;;5088312;28;20287;-74
2023/11/04 07:08:54;;;;;;;0.65;0.65;;;4.90;99.90;;;;;;5083214;28;20539;-70
2023/11/04 07:11:22;;;;;;;1.60;1.00;;;5.00;99.90;;;;;;5078952;28;20752;-73
2023/11/04 07:13:50;;;;;;;0.82;0.82;;;5.00;99.90;;;;;;5086371;28;20207;-74
2023/11/04 07:16:17;;;;;;;1.00;0.90;;;5.00;99.90;;;;;;5090472;28;20244;-74
2023/11/04 07:18:44;;;;;;;1.20;0.70;;;5.00;99.90;;;;;;5086145;28;20229;-76
2023/11/04 07:21:11;;;;;;;0.70;0.70;;;5.10;99.90;;;;;;5084570;28;20951;-76
2023/11/04 07:23:38;;;;;;;0.90;0.90;;;5.20;99.90;;;;;;5086824;28;20210;-74
2023/11/04 07:26:07;;;;;;;1.77;1.30;;;5.20;99.90;;;;;;5090120;28;20230;-75
2023/11/04 07:28:35;;;;;;;1.20;1.10;;;5.30;99.90;;;;;;5084673;28;20657;-74
2023/11/04 07:31:04;;;;;;;1.10;1.00;;;5.40;99.90;;;;;;5087798;28;20203;-76
2023/11/04 07:33:31;;;;;;;0.85;0.80;;;5.50;99.90;;;;;;5095976;28;20290;-74
2023/11/04 07:35:58;;;;;;;1.20;1.10;;;5.50;99.90;;;;;;5090014;28;20204;-74
2023/11/04 07:38:25;;;;;;;1.27;1.05;;;5.60;99.90;;;;;;5092811;28;20215;-73
2023/11/04 07:40:52;;;;;;;0.70;0.70;;;5.60;99.90;;;;;;5088846;28;20547;-75
2023/11/04 07:43:19;;;;;;;0.90;0.90;;;5.60;99.90;;;;;;5090547;28;20201;-78
2023/11/04 07:45:46;;;;;;;1.20;1.10;;;5.60;99.90;;;;;;5101330;28;20558;-77
2023/11/04 07:48:14;;;;;;;0.93;0.73;;;5.70;99.90;;;;;;5089095;28;20611;-79
2023/11/04 07:50:42;;;;;;;0.60;0.60;;;5.90;99.90;;;;;;5088674;28;20301;-76
2023/11/04 07:53:09;;;;;;;1.33;1.23;;;5.90;99.90;;;;;;5086288;28;20196;-77
2023/11/04 07:55:35;;;;;;;0.80;0.80;;;6.00;99.90;;;;;;5086632;28;20198;-79
2023/11/04 07:58:03;;;;;;;2.70;1.20;;;6.10;99.90;;;;;;5095715;28;20718;-78
2023/11/04 08:00:30;;;;;;;0.93;0.80;;;6.20;99.90;;;;;;5089125;28;20617;-76
2023/11/04 08:02:57;;;;;;;1.08;0.85;;;6.30;99.90;;;;;;5096165;28;20608;-77
2023/11/04 08:05:25;;;;;;;2.08;1.00;;;6.30;99.90;;;;;;5088087;28;20203;-73
2023/11/04 08:07:52;;;;;;;1.00;0.90;;;6.50;99.90;;;;;;5088200;28;20198;-74
2023/11/04 08:10:19;;;;;;;1.08;0.98;;;6.50;99.90;;;;;;5087694;28;20652;-77
2023/11/04 08:12:46;;;;;;;2.25;1.40;;;6.40;99.90;;;;;;5088737;28;20635;-79
2023/11/04 08:15:13;;;;;;;1.80;1.23;;;6.60;99.90;;;;;;5090448;28;20286;-83
2023/11/04 08:17:40;;;;;;;1.45;0.70;;;6.70;99.90;;;;;;5095347;28;20201;-80
2023/11/04 08:20:09;;;;;;;1.45;1.00;;;6.80;99.90;;;;;;5087520;28;20256;-73
2023/11/04 08:22:39;;;;;;;1.42;1.17;;;7.00;99.90;;;;;;5095364;28;20199;-76
2023/11/04 08:25:07;;;;;;;0.65;0.65;;;7.20;99.90;;;;;;5090380;28;20205;-73
2023/11/04 08:27:34;;;;;;;0.77;0.67;;;7.30;99.90;;;;;;5091063;28;20644;-74
2023/11/04 08:30:02;;;;;;;0.98;0.98;;;7.30;99.90;;;;;;5091483;28;20621;-74
2023/11/04 08:32:29;;;;;;;0.80;0.80;;;7.30;99.90;;;;;;5088317;28;20599;-75
2023/11/04 08:34:58;;;;;;;1.17;1.15;;;7.40;99.90;;;;;;5088011;28;20900;-72
2023/11/04 08:37:25;;;;;;;0.60;0.60;;;7.30;99.90;;;;;;5086594;28;20608;-75
2023/11/04 08:39:54;;;;;;;1.00;0.90;;;7.40;99.90;;;;;;5082540;28;20675;-75
2023/11/04 08:42:20;;;;;;;0.80;0.50;;;7.40;99.90;;;;;;5091348;28;20324;-75
2023/11/04 08:44:47;;;;;;;0.73;0.73;;;7.40;99.90;;;;;;5094636;28;20723;-74
2023/11/04 08:47:14;;;;;;;1.00;0.77;;;7.50;99.90;;;;;;5092838;28;20620;-74
2023/11/04 08:49:41;;;;;;;0.60;0.60;;;7.60;99.90;;;;;;5083791;28;20635;-75
2023/11/04 08:52:08;;;;;;;0.70;0.70;;;7.70;99.90;;;;;;5086566;28;20199;-76
2023/11/04 08:54:35;;;;;;;0.90;0.73;;;7.70;99.90;;;;;;5081943;28;20745;-75
2023/11/04 08:57:04;;;;;;;1.00;0.97;;;7.90;99.90;;;;;;5086590;28;20625;-80
2023/11/04 08:59:31;;;;;;;1.10;0.90;;;8.00;99.90;;;;;;5087400;28;20660;-75
2023/11/04 09:01:58;;;;;;;1.20;1.10;;;8.10;99.90;;;;;;5087619;28;20621;-75
2023/11/04 09:04:25;;;;;;;1.00;0.83;;;8.30;99.90;;;;;;5086934;28;20629;-74
2023/11/04 09:06:52;;;;;;;0.70;0.70;;;8.40;99.90;;;;;;5086976;28;21288;-74
2023/11/04 09:09:21;;;;;;;1.53;1.00;;;8.40;99.90;;;;;;5085466;28;20828;-75
2023/11/04 09:11:48;;;;;;;1.10;1.00;;;8.50;99.90;;;;;;5087722;28;20636;-74
2023/11/04 09:14:16;;;;;;;0.97;0.70;;;8.60;99.80;;;;;;5086322;28;20647;-72
2023/11/04 09:16:43;;;;;;;1.00;0.70;;;8.80;99.30;;;;;;5095191;28;21325;-73
2023/11/04 09:19:10;;;;;;;1.00;0.80;;;8.90;99.10;;;;;;5084844;28;20741;-74
2023/11/04 09:21:37;;;;;;;5.93;1.03;;;8.90;99.20;;;;;;5086391;28;20633;-75
2023/11/04 09:24:05;;;;;;;0.70;0.70;;;8.90;98.80;;;;;;5083969;28;21063;-75
2023/11/04 09:26:32;;;;;;;1.30;1.20;;;8.80;98.70;;;;;;5086898;28;20742;-76
2023/11/04 09:28:59;;;;;;;0.87;0.80;;;8.90;98.90;;;;;;5086539;28;20624;-76
2023/11/04 09:31:27;;;;;;;0.80;0.80;;;8.90;98.80;;;;;;5084911;28;20715;-75
2023/11/04 09:33:55;;;;;;;0.73;0.73;;;8.80;98.50;;;;;;5082552;28;21188;-77
2023/11/04 09:36:22;;;;;;;1.17;1.07;;;9.00;98.10;;;;;;5083238;28;20689;-77
2023/11/04 09:38:49;;;;;;;1.13;0.87;;;8.90;98.30;;;;;;5078233;28;20657;-76
2023/11/04 09:41:16;;;;;;;0.53;0.53;;;8.80;98.30;;;;;;5083448;28;20636;-79
2023/11/04 09:43:43;;;;;;;1.23;1.10;;;8.80;99.20;;;;;;5090523;28;20990;-80
2023/11/04 09:46:10;;;;;;;1.57;1.17;;;8.90;98.70;;;;;;5097720;28;20623;-73
2023/11/04 09:48:38;;;;;;;2.03;1.33;;;8.90;99.10;;;;;;5091293;28;20631;-76
2023/11/04 09:51:12;;;;;;;2.37;1.90;;;8.90;98.90;;;;;;5092388;28;21078;-75
2023/11/04 09:53:47;;;;;;;1.70;1.17;;;9.10;98.80;;;;;;5086289;28;21208;-79
2023/11/04 09:56:14;;;;;;;0.80;0.80;;;9.10;98.80;;;;;;5093882;28;20639;-78
2023/11/04 09:58:41;;;;;;;1.77;1.13;;;9.30;98.60;;;;;;5085135;28;20610;-78
2023/11/04 10:01:09;;;;;;;0.93;0.70;;;9.50;97.90;;;;;;5104970;28;20628;-78
2023/11/04 10:03:35;;;;;;;0.97;0.60;;;9.50;97.90;;;;;;5077827;28;20633;-78
2023/11/04 10:06:04;;;;;;;0.60;0.60;;;9.60;97.90;;;;;;5094985;28;21107;-78
2023/11/04 10:08:32;;;;;;;0.60;0.60;;;9.70;97.60;;;;;;5087561;28;20624;-78
2023/11/04 10:10:58;;;;;;;0.90;0.77;;;9.80;96.60;;;;;;5099288;28;20627;-78
2023/11/04 10:13:25;;;;;;;0.53;0.53;;;9.80;97.00;;;;;;5089798;28;20641;-78
2023/11/04 10:15:52;;;;;;;0.77;0.77;;;9.80;96.60;;;;;;5089189;28;21100;-78
2023/11/04 10:18:19;;;;;;;1.67;1.10;;;9.70;96.80;;;;;;5086608;28;20628;-78
2023/11/04 10:20:46;;;;;;;0.67;0.67;;;9.80;96.90;;;;;;5090022;28;21254;-78
2023/11/04 10:23:14;;;;;;;0.60;0.60;;;9.80;97.10;;;;;;5085319;28;20636;-78
2023/11/04 10:25:41;;;;;;;0.70;0.70;;;9.90;96.30;;;;;;5088645;28;20731;-78
2023/11/04 10:28:08;;;;;;;0.63;0.63;;;9.90;96.10;;;;;;5090773;28;20733;-78
2023/11/04 10:30:37;;;;;;;1.50;0.70;;;9.80;96.50;;;;;;5090547;28;20679;-78
2023/11/04 10:33:07;;;;;;;0.90;0.70;;;9.90;96.10;;;;;;5082894;28;20717;-78
2023/11/04 10:35:35;;;;;;;0.53;0.53;;;9.90;96.30;;;;;;5093528;28;20624;-78
2023/11/04 10:38:06;;;;;;;0.60;0.60;;;9.90;95.90;;;;;;5096302;28;20624;-78
2023/11/04 10:40:34;;;;;;;1.27;0.90;;;9.80;95.90;;;;;;5093183;28;20659;-78
2023/11/04 10:43:06;;;;;;;0.60;0.60;;;9.70;95.60;;;;;;5088888;28;21189;-78
2023/11/04 10:45:37;;;;;;;5.53;0.90;;;9.60;95.90;;;;;;5094097;28;20627;-77
2023/11/04 10:48:11;;;;;;;1.00;1.00;;;9.60;95.90;;;;;;5086260;28;21227;-78
2023/11/04 10:50:43;;;;;;;0.93;0.83;;;9.60;95.90;;;;;;5087972;28;20619;-78
2023/11/04 10:53:14;;;;;;;0.50;0.50;;;9.50;96.00;;;;;;5099946;28;20728;-78
2023/11/04 10:55:49;;;;;;;0.73;0.50;;;9.50;96.10;;;;;;5094514;28;20628;-78
2023/11/04 10:58:24;;;;;;;0.70;0.70;;;9.50;95.60;;;;;;5102827;28;21171;-78
2023/11/04 11:00:52;;;;;;;0.90;0.77;;;9.40;95.90;;;;;;5095121;28;20672;-78
2023/11/04 11:03:20;;;;;;;0.60;0.60;;;9.50;95.30;;;;;;5098645;28;20632;-78
2023/11/04 11:05:48;;;;;;;0.60;0.60;;;9.40;95.60;;;;;;5086309;28;21257;-79
2023/11/04 11:08:16;;;;;;;0.60;0.60;;;9.30;95.90;;;;;;5085289;28;20625;-77
2023/11/04 11:10:49;;;;;;;1.13;0.90;;;9.40;95.90;;;;;;5084955;28;20626;-78
2023/11/04 11:13:22;;;;;;;0.50;0.50;;;9.50;95.90;;;;;;5088322;28;20641;-78
2023/11/04 11:15:49;;;;;;;0.60;0.60;;;9.60;96.00;;;;;;5080968;28;20624;-78
2023/11/04 11:18:26;;;;;;;0.80;0.80;;;9.60;95.80;;;;;;5088830;28;20744;-78
2023/11/04 11:20:53;;;;;;;0.87;0.87;;;9.70;96.00;;;;;;5093267;28;20672;-78
2023/11/04 11:23:26;;;;;;;1.07;0.70;;;9.90;95.70;;;;;;5090186;28;20635;-78
2023/11/04 11:26:03;;;;;;;0.87;0.87;;;9.90;95.60;;;;;;5091014;28;20624;-78
2023/11/04 11:28:35;;;;;;;0.70;0.70;;;9.90;95.40;;;;;;5097874;28;20619;-78
2023/11/04 11:31:02;;;;;;;1.27;0.70;;;9.70;95.90;;;;;;5094580;28;20636;-79
2023/11/04 11:33:31;;;;;;;0.80;0.60;;;9.80;94.90;;;;;;5098495;28;20627;-79
2023/11/04 11:35:59;;;;;;;0.50;0.50;;;9.80;94.70;;;;;;5092936;28;20639;-77
2023/11/04 11:38:26;;;;;;;1.17;0.40;;;9.70;94.50;;;;;;5092639;28;20659;-78
2023/11/04 11:40:55;;;;;;;0.70;0.70;;;9.70;94.30;;;;;;5091819;28;20664;-77
2023/11/04 11:43:22;;;;;;;0.83;0.77;;;9.70;94.40;;;;;;5094580;28;20623;-78
2023/11/04 11:45:49;;;;;;;0.50;0.40;;;9.80;93.70;;;;;;5104144;28;21155;-77
2023/11/04 11:48:16;;;;;;;0.97;0.63;;;9.90;93.60;;;;;;5093237;28;20966;-78
2023/11/04 11:50:44;;;;;;;0.40;0.40;;;9.90;92.90;;;;;;5095376;28;20626;-77
2023/11/04 11:53:11;;;;;;;0.50;0.50;;;9.80;92.70;;;;;;5090943;28;20635;-77
2023/11/04 11:55:39;;;;;;;0.83;0.60;;;9.80;93.10;;;;;;5089206;28;20635;-77
2023/11/04 11:58:07;;;;;;;0.50;0.50;;;9.70;93.10;;;;;;5097653;28;20631;-77
2023/11/04 12:00:35;;;;;;;0.50;0.40;;;9.70;93.60;;;;;;5096944;28;20671;-78
2023/11/04 12:03:02;;;;;;;1.53;0.80;;;9.80;93.60;;;;;;5105843;28;20616;-78
2023/11/04 12:05:29;;;;;;;0.50;0.40;;;9.80;92.70;;;;;;5090723;28;21177;-78
2023/11/04 12:07:56;;;;;;;0.43;0.43;;;9.70;93.10;;;;;;5088551;28;20621;-78
2023/11/04 12:10:23;;;;;;;0.50;0.43;;;9.60;93.50;;;;;;5095887;28;20985;-78
2023/11/04 12:12:50;;;;;;;0.60;0.50;;;9.60;93.40;;;;;;5091747;28;20633;-78
2023/11/04 12:15:21;;;;;;;1.37;0.60;;;9.60;93.80;;;;;;5090554;28;20627;-78
2023/11/04 12:17:57;;;;;;;0.50;0.50;;;9.60;93.90;;;;;;5082136;28;21011;-78
2023/11/04 12:20:26;;;;;;;0.83;0.73;;;9.60;95.20;;;;;;5090678;28;20656;-77
2023/11/04 12:22:55;;;;;;;0.60;0.60;;;9.60;95.90;;;;;;5084828;28;20625;-78
2023/11/04 12:25:22;;;;;;;0.57;0.50;;;9.60;96.80;;;;;;5088416;28;20624;-77
2023/11/04 12:27:49;;;;;;;0.93;0.50;;;9.50;96.50;;;;;;5091103;28;21016;-77
2023/11/04 12:30:18;;;;;;;0.40;0.30;;;9.40;96.10;;;;;;5089437;28;20639;-77
2023/11/04 12:32:48;;;;;;;0.80;0.80;;;9.50;95.70;;;;;;5098992;28;21198;-77
2023/11/04 12:35:15;;;;;;;0.73;0.60;;;9.50;96.20;;;;;;5092796;28;21163;-77
2023/11/04 12:37:42;;;;;;;0.70;0.60;;;9.50;96.10;;;;;;5088170;28;20621;-78
2023/11/04 12:40:12;;;;;;;0.97;0.83;;;9.60;95.50;;;;;;5087916;28;21390;-78
2023/11/04 12:42:40;;;;;;;0.70;0.70;;;9.60;95.70;;;;;;5090302;28;20620;-78
2023/11/04 12:45:08;;;;;;;0.50;0.40;;;9.50;96.00;;;;;;5089399;28;20714;-78
2023/11/04 12:47:37;;;;;;;0.80;0.40;;;9.60;96.20;;;;;;5098321;28;20638;-78
2023/11/04 12:50:05;;;;;;;0.50;0.50;;;9.60;95.90;;;;;;5090428;28;20625;-78
2023/11/04 12:52:32;;;;;;;0.80;0.57;;;9.60;95.90;;;;;;5092445;28;20617;-78
2023/11/04 12:54:58;;;;;;;0.57;0.50;;;9.70;94.60;;;;;;5101494;28;20694;-77
2023/11/04 12:57:26;;;;;;;0.63;0.50;;;9.80;94.00;;;;;;5092997;28;20983;-78
2023/11/04 12:59:53;;;;;;;0.70;0.50;;;9.80;94.00;;;;;;5087590;28;20648;-77